Terminal Aerodrome Forecast
Issued by NWS Caribou, ME

Home | Current Version | Previous Version | Text Only | Print | Product List | Glossary On
Versions: 1 2 3 4 5 6 7 8 9 10 11 12 13 14 15 16 17 18 19 20 21
324
FTUS41 KCAR 052337
TAFCAR
TAF
KCAR 052337Z 0600/0624 VRB03KT P6SM VCSH OVC050
      TEMPO 0600/0602 6SM -SN OVC035
     FM060200 VRB03KT P6SM OVC015
     FM060400 32004KT P6SM OVC008
     FM061200 32004KT P6SM OVC010
     FM061500 32006KT P6SM BKN020
     FM061800 32006KT P6SM BKN035=

USA.gov is the U.S. government's official web portal to all federal, state and local government web resources and services.